createdAt,value
2022-08-25T00:00:13.094Z,39.51
2022-08-25T00:02:41.712Z,39.43
2022-08-25T00:05:26.336Z,39.52
2022-08-25T00:07:55.644Z,39.49
2022-08-25T00:10:23.352Z,39.40
2022-08-25T00:12:51.077Z,39.52
2022-08-25T00:15:18.824Z,39.46
2022-08-25T00:17:46.582Z,39.54
2022-08-25T00:20:14.618Z,39.76
2022-08-25T00:22:43.705Z,39.51
2022-08-25T00:25:11.408Z,39.54
2022-08-25T00:27:39.197Z,39.61
2022-08-25T00:30:08.528Z,39.66
2022-08-25T00:32:36.247Z,39.56
2022-08-25T00:35:04.474Z,39.61
2022-08-25T00:37:32.273Z,39.80
2022-08-25T00:40:02.274Z,39.59
2022-08-25T00:42:30.047Z,39.55
2022-08-25T00:44:58.187Z,39.52
2022-08-25T00:47:26.060Z,39.49
2022-08-25T00:49:55.316Z,39.68
2022-08-25T00:52:24.262Z,39.48
2022-08-25T00:54:53.252Z,39.52
2022-08-25T00:57:33.962Z,39.56
2022-08-25T01:00:03.064Z,39.83
2022-08-25T01:02:30.854Z,39.66
2022-08-25T01:04:58.880Z,39.83
2022-08-25T01:07:26.608Z,39.85
2022-08-25T01:09:54.425Z,39.80
2022-08-25T01:12:23.516Z,39.82
2022-08-25T01:14:51.238Z,39.98
2022-08-25T01:17:18.949Z,39.65
2022-08-25T01:19:46.640Z,39.67
2022-08-25T01:22:17.358Z,39.55
2022-08-25T01:24:48.630Z,39.69
2022-08-25T01:27:16.388Z,39.90
2022-08-25T01:29:44.130Z,39.82
2022-08-25T01:32:13.305Z,39.91
2022-08-25T01:34:42.403Z,40.04
2022-08-25T01:37:13.360Z,39.90
2022-08-25T01:39:42.622Z,39.96
2022-08-25T01:42:29.376Z,39.83
2022-08-25T01:44:57.568Z,39.85
2022-08-25T01:47:25.468Z,39.86
2022-08-25T01:49:53.161Z,39.88
2022-08-25T01:52:22.380Z,40.02
2022-08-25T01:54:51.414Z,39.86
2022-08-25T01:57:19.156Z,39.91
2022-08-25T01:59:47.522Z,40.20
2022-08-25T02:02:15.317Z,39.90
2022-08-25T02:04:46.070Z,40.01
2022-08-25T02:07:13.805Z,40.00
2022-08-25T02:09:41.505Z,40.06
2022-08-25T02:12:11.020Z,39.96
2022-08-25T02:14:38.772Z,40.10
2022-08-25T02:17:07.163Z,40.08
2022-08-25T02:19:34.916Z,39.91
2022-08-25T02:22:02.703Z,40.10
2022-08-25T02:24:30.424Z,40.08
2022-08-25T02:26:58.838Z,39.95
2022-08-25T02:29:27.888Z,40.10
2022-08-25T02:31:55.612Z,39.96
2022-08-25T02:34:23.839Z,40.12
2022-08-25T02:36:51.569Z,40.20
2022-08-25T02:39:19.274Z,40.09
2022-08-25T02:41:46.997Z,40.06
2022-08-25T02:44:14.698Z,40.24
2022-08-25T02:46:44.371Z,40.12
2022-08-25T02:49:12.096Z,40.19
2022-08-25T02:51:39.815Z,40.26
2022-08-25T02:54:07.561Z,40.27
2022-08-25T02:56:35.326Z,40.21
2022-08-25T02:59:03.060Z,40.40
2022-08-25T03:01:31.016Z,40.23
2022-08-25T03:04:00.197Z,40.28
2022-08-25T03:06:28.562Z,40.33
2022-08-25T03:08:56.408Z,40.04
2022-08-25T03:11:26.645Z,40.22
2022-08-25T03:13:54.440Z,40.36
2022-08-25T03:16:22.271Z,40.40
2022-08-25T03:18:50.197Z,40.35
2022-08-25T03:21:20.460Z,40.38
2022-08-25T03:23:48.552Z,40.51
2022-08-25T03:26:34.128Z,40.38
2022-08-25T03:29:05.024Z,40.39
2022-08-25T03:31:33.198Z,40.27
2022-08-25T03:34:01.000Z,40.25
2022-08-25T03:36:30.143Z,40.49
2022-08-25T03:38:57.899Z,40.46
2022-08-25T03:41:29.577Z,40.41
2022-08-25T03:43:57.630Z,40.56
2022-08-25T03:46:28.303Z,40.67
2022-08-25T03:48:56.028Z,40.55
2022-08-25T03:51:24.280Z,40.44
2022-08-25T03:53:53.495Z,40.46
2022-08-25T03:56:21.277Z,40.46
2022-08-25T03:58:49.537Z,40.64
2022-08-25T04:01:18.219Z,40.49
2022-08-25T04:03:46.186Z,40.35
2022-08-25T04:06:14.042Z,40.60
2022-08-25T04:08:42.021Z,40.50
2022-08-25T04:11:11.809Z,40.56
2022-08-25T04:13:39.554Z,40.60
2022-08-25T04:16:11.853Z,40.53
2022-08-25T04:18:39.840Z,40.56
2022-08-25T04:21:09.136Z,40.66
2022-08-25T04:23:36.926Z,40.71
2022-08-25T04:26:11.137Z,40.48
2022-08-25T04:28:38.925Z,40.78
2022-08-25T04:31:07.879Z,40.66
2022-08-25T04:33:35.704Z,40.69
2022-08-25T04:36:03.456Z,40.87
2022-08-25T04:38:32.406Z,40.70
2022-08-25T04:41:00.316Z,40.93
2022-08-25T04:43:29.402Z,40.91
2022-08-25T04:45:57.213Z,40.93
2022-08-25T04:48:24.971Z,40.83
2022-08-25T04:50:52.672Z,40.92
2022-08-25T04:53:22.446Z,41.18
2022-08-25T04:55:50.142Z,41.07
2022-08-25T04:58:18.007Z,41.38
2022-08-25T05:00:47.820Z,41.27
2022-08-25T05:03:15.592Z,41.66
2022-08-25T05:05:43.310Z,41.53
2022-08-25T05:08:11.148Z,41.37
2022-08-25T05:10:40.802Z,41.60
2022-08-25T05:13:10.156Z,41.29
2022-08-25T05:15:53.074Z,41.50
2022-08-25T05:18:23.201Z,41.50
2022-08-25T05:20:51.301Z,41.64
2022-08-25T05:23:19.039Z,41.73
2022-08-25T05:25:46.743Z,41.81
2022-08-25T05:28:14.842Z,41.80
2022-08-25T05:30:43.347Z,41.88
2022-08-25T05:33:11.223Z,41.95
2022-08-25T05:35:40.291Z,41.66
2022-08-25T05:38:08.015Z,41.50
2022-08-25T05:40:43.344Z,41.59
2022-08-25T05:43:12.374Z,41.87
2022-08-25T05:45:40.641Z,41.67
2022-08-25T05:48:08.563Z,41.77
2022-08-25T05:50:36.270Z,42.09
2022-08-25T05:53:05.497Z,42.14
2022-08-25T05:55:33.201Z,41.76
2022-08-25T05:58:00.952Z,41.42
2022-08-25T06:00:28.688Z,41.66
2022-08-25T06:02:55.454Z,42.08
2022-08-25T06:05:24.001Z,42.49
2022-08-25T06:07:52.645Z,42.63
2022-08-25T06:10:22.011Z,42.13
2022-08-25T06:12:50.160Z,42.57
2022-08-25T06:15:19.006Z,42.10
2022-08-25T06:17:46.772Z,42.28
2022-08-25T06:20:16.756Z,42.01
2022-08-25T06:22:44.421Z,42.24
2022-08-25T06:25:12.978Z,42.34
2022-08-25T06:27:42.062Z,42.00
2022-08-25T06:30:11.544Z,41.67
2022-08-25T06:32:40.826Z,42.07
2022-08-25T06:35:10.513Z,42.60
2022-08-25T06:37:38.290Z,42.98
2022-08-25T06:40:06.876Z,42.94
2022-08-25T06:42:34.863Z,42.93
2022-08-25T06:45:04.083Z,43.50
2022-08-25T06:47:32.012Z,43.31
2022-08-25T06:49:59.733Z,43.34
2022-08-25T06:52:29.151Z,43.54
2022-08-25T06:54:57.347Z,43.81
2022-08-25T06:57:25.077Z,43.95
2022-08-25T06:59:54.290Z,44.06
2022-08-25T07:02:23.877Z,44.16
2022-08-25T07:04:53.527Z,44.01
2022-08-25T07:07:21.435Z,43.92
2022-08-25T07:09:49.141Z,44.12
2022-08-25T07:12:16.865Z,44.55
2022-08-25T07:14:53.396Z,44.29
2022-08-25T07:17:32.835Z,44.62
2022-08-25T07:20:01.216Z,44.61
2022-08-25T07:22:28.945Z,44.91
2022-08-25T07:24:56.700Z,45.34
2022-08-25T07:27:25.846Z,45.61
2022-08-25T07:29:54.081Z,45.62
2022-08-25T07:32:21.807Z,45.81
2022-08-25T07:35:08.513Z,46.25
2022-08-25T07:37:48.921Z,46.08
2022-08-25T07:40:18.632Z,46.36
2022-08-25T07:42:46.647Z,46.56
2022-08-25T07:45:15.623Z,46.77
2022-08-25T07:47:48.796Z,46.98
2022-08-25T07:50:20.931Z,47.11
2022-08-25T07:52:53.923Z,47.00
2022-08-25T07:55:23.657Z,47.03
2022-08-25T07:57:55.923Z,47.29
2022-08-25T08:00:27.459Z,47.26
2022-08-25T08:02:55.349Z,47.34
2022-08-25T08:05:24.538Z,47.47
2022-08-25T08:07:52.323Z,47.23
2022-08-25T08:13:08.041Z,47.21
2022-08-25T08:15:35.894Z,47.26
2022-08-25T08:18:05.268Z,47.50
2022-08-25T08:20:42.915Z,47.28
2022-08-25T08:23:11.162Z,47.62
2022-08-25T08:25:38.862Z,47.85
2022-08-25T08:28:07.254Z,48.11
2022-08-25T08:30:36.520Z,48.04
2022-08-25T08:33:10.215Z,47.84
2022-08-25T08:35:41.252Z,47.69
2022-08-25T08:38:14.733Z,47.47
2022-08-25T08:41:09.439Z,47.37
2022-08-25T08:43:37.392Z,47.17
2022-08-25T08:46:07.502Z,46.98
2022-08-25T08:48:50.165Z,47.17
2022-08-25T08:51:23.130Z,47.03
2022-08-25T08:53:54.076Z,46.68
2022-08-25T08:56:30.790Z,46.61
2022-08-25T08:59:05.587Z,46.46
2022-08-25T09:01:35.160Z,46.65
2022-08-25T09:04:05.984Z,46.44
2022-08-25T09:06:38.953Z,46.35
2022-08-25T09:09:07.099Z,46.33
2022-08-25T09:11:47.981Z,45.82
2022-08-25T09:14:30.440Z,46.26
2022-08-25T09:17:01.138Z,46.20
2022-08-25T09:19:43.829Z,45.90
2022-08-25T09:22:34.000Z,45.76
2022-08-25T09:25:08.919Z,45.79
2022-08-25T09:27:40.555Z,45.84
2022-08-25T09:30:10.114Z,46.21
2022-08-25T09:32:40.545Z,45.83
2022-08-25T09:35:08.847Z,45.74
2022-08-25T09:37:37.924Z,45.93
2022-08-25T09:40:06.539Z,45.87
2022-08-25T09:42:49.644Z,45.74
2022-08-25T09:45:17.660Z,45.91
2022-08-25T09:47:46.603Z,45.54
2022-08-25T09:50:18.623Z,45.65
2022-08-25T09:52:47.827Z,45.65
2022-08-25T09:55:28.634Z,46.06
2022-08-25T09:57:56.944Z,45.62
2022-08-25T10:00:27.568Z,45.69
2022-08-25T10:03:24.868Z,45.63
2022-08-25T10:06:02.187Z,45.73
2022-08-25T10:08:36.371Z,45.87
2022-08-25T10:11:06.499Z,45.55
2022-08-25T10:13:40.115Z,45.86
2022-08-25T10:16:18.062Z,45.78
2022-08-25T10:18:50.777Z,45.51
2022-08-25T10:21:19.590Z,45.31
2022-08-25T10:23:49.677Z,45.66
2022-08-25T10:26:32.019Z,45.42
2022-08-25T10:29:11.903Z,45.35
2022-08-25T10:31:42.303Z,45.33
2022-08-25T10:34:20.726Z,45.50
2022-08-25T10:36:56.086Z,45.49
2022-08-25T10:39:34.162Z,45.19
2022-08-25T10:42:07.758Z,45.26
2022-08-25T10:44:54.951Z,45.29
2022-08-25T10:47:58.182Z,45.36
2022-08-25T10:50:30.391Z,45.27
2022-08-25T10:53:06.587Z,45.47
2022-08-25T10:55:43.310Z,45.29
2022-08-25T10:58:14.871Z,44.92
2022-08-25T11:00:46.582Z,45.24
2022-08-25T11:03:21.807Z,45.52
2022-08-25T11:05:54.891Z,45.21
2022-08-25T11:08:26.433Z,45.17
2022-08-25T11:10:59.543Z,45.08
2022-08-25T11:13:30.179Z,44.91
2022-08-25T11:16:18.772Z,45.17
2022-08-25T11:18:53.069Z,44.94
2022-08-25T11:21:22.880Z,45.33
2022-08-25T11:23:53.759Z,44.99
2022-08-25T11:26:31.871Z,45.27
2022-08-25T11:29:04.099Z,44.97
2022-08-25T11:31:31.825Z,44.69
2022-08-25T11:33:59.557Z,44.87
2022-08-25T11:36:29.877Z,44.83
2022-08-25T11:39:05.075Z,44.76
2022-08-25T11:41:37.116Z,44.58
2022-08-25T11:44:14.044Z,44.42
2022-08-25T11:46:51.227Z,44.14
2022-08-25T11:49:44.472Z,43.94
2022-08-25T11:52:46.007Z,44.16
2022-08-25T11:55:14.532Z,43.75
2022-08-25T11:57:43.690Z,44.01
2022-08-25T12:00:14.713Z,43.73
2022-08-25T12:02:44.039Z,43.58
2022-08-25T12:05:36.175Z,43.65
2022-08-25T12:08:23.403Z,43.97
2022-08-25T12:10:56.311Z,43.89
2022-08-25T12:13:40.771Z,43.22
2022-08-25T12:16:08.920Z,43.19
2022-08-25T12:18:45.903Z,43.02
2022-08-25T12:21:16.276Z,42.94
2022-08-25T12:23:45.286Z,42.92
2022-08-25T12:26:18.642Z,42.74
2022-08-25T12:29:07.943Z,42.60
2022-08-25T12:31:48.271Z,42.83
2022-08-25T12:34:24.336Z,42.83
2022-08-25T12:36:58.983Z,42.88
2022-08-25T12:39:31.016Z,42.76
2022-08-25T12:44:47.933Z,42.71
2022-08-25T12:47:31.900Z,42.99
2022-08-25T12:50:33.531Z,42.81
2022-08-25T12:53:10.068Z,42.82
2022-08-25T12:55:38.601Z,42.40
2022-08-25T12:58:06.610Z,42.28
2022-08-25T13:00:46.242Z,42.52
2022-08-25T13:03:34.644Z,42.59
2022-08-25T13:06:27.200Z,42.54
2022-08-25T13:09:24.920Z,42.88
2022-08-25T13:11:54.766Z,42.68
2022-08-25T13:14:27.264Z,42.94
2022-08-25T13:16:57.712Z,42.51
2022-08-25T13:19:25.601Z,42.48
2022-08-25T13:21:54.745Z,42.75
2022-08-25T13:24:23.675Z,42.92
2022-08-25T13:26:53.677Z,42.89
2022-08-25T13:29:22.582Z,42.22
2022-08-25T13:32:01.582Z,42.24
2022-08-25T13:34:34.950Z,42.31
2022-08-25T13:37:24.156Z,42.69
2022-08-25T13:39:56.474Z,42.09
2022-08-25T13:42:29.031Z,42.12
2022-08-25T13:44:57.193Z,42.11
2022-08-25T13:47:45.290Z,42.47
2022-08-25T13:50:22.788Z,42.09
2022-08-25T13:52:55.268Z,42.06
2022-08-25T13:55:27.615Z,42.44
2022-08-25T13:57:57.220Z,41.85
2022-08-25T14:00:33.079Z,42.38
2022-08-25T14:03:03.454Z,42.08
2022-08-25T14:05:40.839Z,42.23
2022-08-25T14:08:33.243Z,41.76
2022-08-25T14:11:07.748Z,41.95
2022-08-25T14:13:44.551Z,42.22
2022-08-25T14:16:15.173Z,42.14
2022-08-25T14:18:50.024Z,41.73
2022-08-25T14:21:17.775Z,41.77
2022-08-25T14:23:46.892Z,41.84
2022-08-25T14:26:15.288Z,41.93
2022-08-25T14:28:44.182Z,41.79
2022-08-25T14:31:14.918Z,41.78
2022-08-25T14:33:43.861Z,41.71
2022-08-25T14:36:20.896Z,41.25
2022-08-25T14:38:54.513Z,41.34
2022-08-25T14:41:23.689Z,41.39
2022-08-25T14:43:51.509Z,41.45
2022-08-25T14:46:21.374Z,41.10
2022-08-25T14:48:50.738Z,41.13
2022-08-25T14:51:19.780Z,41.03
2022-08-25T14:53:48.159Z,40.99
2022-08-25T14:56:16.156Z,41.62
2022-08-25T14:58:48.351Z,41.58
2022-08-25T15:01:20.197Z,41.18
2022-08-25T15:03:57.959Z,41.27
2022-08-25T15:06:27.154Z,40.95
2022-08-25T15:09:11.209Z,40.76
2022-08-25T15:11:41.609Z,41.06
2022-08-25T15:14:10.966Z,41.32
2022-08-25T15:16:41.288Z,40.93
2022-08-25T15:19:09.646Z,41.05
2022-08-25T15:21:39.004Z,41.10
2022-08-25T15:24:07.197Z,41.05
2022-08-25T15:26:35.639Z,41.07
2022-08-25T15:29:04.377Z,41.13
2022-08-25T15:31:32.119Z,40.90
2022-08-25T15:34:00.909Z,41.00
2022-08-25T15:36:29.004Z,41.49
2022-08-25T15:38:58.150Z,41.01
2022-08-25T15:41:27.902Z,41.27
2022-08-25T15:43:55.942Z,41.08
2022-08-25T15:46:24.992Z,41.31
2022-08-25T15:48:52.862Z,41.70
2022-08-25T15:51:20.592Z,41.57
2022-08-25T15:53:48.569Z,41.23
2022-08-25T15:56:26.655Z,41.57
2022-08-25T15:58:55.531Z,41.35
2022-08-25T16:01:24.962Z,41.29
2022-08-25T16:03:52.785Z,41.68
2022-08-25T16:06:20.655Z,41.48
2022-08-25T16:08:48.662Z,41.85
2022-08-25T16:11:19.727Z,41.49
2022-08-25T16:13:49.284Z,41.53
2022-08-25T16:16:18.401Z,41.98
2022-08-25T16:18:46.294Z,41.97
2022-08-25T16:21:19.462Z,41.95
2022-08-25T16:23:49.405Z,42.03
2022-08-25T16:26:18.695Z,42.03
2022-08-25T16:28:46.422Z,41.95
2022-08-25T16:31:15.181Z,41.98
2022-08-25T16:36:08.352Z,41.48
2022-08-25T16:38:36.580Z,41.54
2022-08-25T16:41:08.805Z,41.19
2022-08-25T16:43:38.259Z,40.83
2022-08-25T16:46:07.404Z,40.94
2022-08-25T16:48:35.129Z,41.47
2022-08-25T16:51:07.242Z,41.42
2022-08-25T16:53:53.595Z,41.39
2022-08-25T16:56:24.805Z,41.51
2022-08-25T16:58:57.058Z,41.29
2022-08-25T17:01:25.202Z,41.20
2022-08-25T17:03:53.119Z,41.27
2022-08-25T17:06:20.905Z,41.17
2022-08-25T17:08:50.823Z,41.13
2022-08-25T17:11:20.262Z,41.08
2022-08-25T17:13:49.692Z,41.41
2022-08-25T17:16:19.023Z,41.57
2022-08-25T17:18:48.112Z,41.39
2022-08-25T17:21:24.184Z,41.54
2022-08-25T17:23:53.006Z,41.61
2022-08-25T17:26:28.098Z,41.34
2022-08-25T17:28:57.011Z,41.70
2022-08-25T17:31:28.487Z,41.39
2022-08-25T17:33:57.825Z,41.20
2022-08-25T17:36:27.142Z,41.29
2022-08-25T17:38:55.128Z,41.80
2022-08-25T17:41:25.015Z,41.62
2022-08-25T17:43:52.763Z,41.68
2022-08-25T17:46:21.451Z,41.37
2022-08-25T17:48:50.648Z,41.41
2022-08-25T17:51:18.367Z,41.87
2022-08-25T17:53:46.817Z,41.65
2022-08-25T17:56:15.859Z,41.82
2022-08-25T17:58:44.561Z,42.01
2022-08-25T18:01:16.624Z,41.95
2022-08-25T18:03:44.518Z,42.05
2022-08-25T18:06:16.007Z,42.18
2022-08-25T18:08:44.197Z,42.07
2022-08-25T18:11:12.179Z,41.66
2022-08-25T18:13:41.512Z,41.96
2022-08-25T18:16:09.414Z,42.23
2022-08-25T18:18:37.280Z,42.28
2022-08-25T18:21:05.391Z,42.41
2022-08-25T18:23:36.198Z,42.43
2022-08-25T18:26:03.889Z,42.52
2022-08-25T18:28:34.475Z,42.25
2022-08-25T18:31:03.154Z,42.35
2022-08-25T18:33:30.936Z,42.66
2022-08-25T18:35:58.876Z,42.53
2022-08-25T18:38:44.029Z,42.97
2022-08-25T18:41:14.470Z,43.08
2022-08-25T18:43:42.270Z,43.17
2022-08-25T18:46:10.121Z,42.79
2022-08-25T18:48:37.922Z,42.88
2022-08-25T18:51:06.082Z,43.09
2022-08-25T18:53:49.604Z,42.96
2022-08-25T18:56:19.316Z,42.97
2022-08-25T18:58:47.190Z,43.13
2022-08-25T19:01:15.085Z,43.11
2022-08-25T19:03:43.200Z,43.16
2022-08-25T19:06:11.125Z,43.26
2022-08-25T19:08:41.834Z,43.28
2022-08-25T19:11:10.115Z,43.30
2022-08-25T19:13:39.298Z,43.45
2022-08-25T19:16:11.702Z,43.33
2022-08-25T19:18:40.051Z,43.55
2022-08-25T19:21:08.559Z,43.87
2022-08-25T19:23:38.079Z,43.42
2022-08-25T19:26:07.895Z,43.45
2022-08-25T19:28:45.900Z,43.57
2022-08-25T19:31:16.506Z,44.04
2022-08-25T19:33:46.433Z,44.11
2022-08-25T19:36:14.301Z,44.11
2022-08-25T19:38:42.046Z,44.10
2022-08-25T19:41:14.695Z,44.00
2022-08-25T19:43:56.547Z,43.80
2022-08-25T19:46:25.480Z,43.82
2022-08-25T19:48:53.251Z,43.94
2022-08-25T19:51:21.987Z,44.34
2022-08-25T19:53:54.684Z,43.98
2022-08-25T19:56:23.472Z,44.08
2022-08-25T19:58:52.575Z,44.04
2022-08-25T20:01:23.034Z,44.00
2022-08-25T20:03:52.143Z,44.34
2022-08-25T20:06:19.856Z,44.54
2022-08-25T20:08:47.546Z,44.35
2022-08-25T20:11:27.020Z,44.52
2022-08-25T20:13:58.166Z,44.27
2022-08-25T20:16:28.209Z,44.30
2022-08-25T20:18:56.009Z,44.76
2022-08-25T20:21:25.139Z,44.34
2022-08-25T20:24:10.613Z,44.69
2022-08-25T20:26:38.440Z,44.71
2022-08-25T20:29:10.160Z,44.72
2022-08-25T20:31:37.851Z,44.67
2022-08-25T20:34:06.584Z,44.51
2022-08-25T20:36:35.280Z,44.87
2022-08-25T20:39:04.590Z,44.59
2022-08-25T20:41:33.871Z,44.80
2022-08-25T20:44:05.241Z,44.96
2022-08-25T20:46:34.756Z,44.59
2022-08-25T20:49:05.970Z,45.04
2022-08-25T20:51:33.664Z,44.92
2022-08-25T20:54:01.386Z,44.68
2022-08-25T20:56:30.079Z,45.15
2022-08-25T20:58:57.800Z,44.95
2022-08-25T21:01:37.422Z,44.94
2022-08-25T21:04:07.281Z,44.85
2022-08-25T21:06:35.421Z,44.80
2022-08-25T21:09:03.170Z,45.19
2022-08-25T21:11:31.135Z,45.06
2022-08-25T21:13:59.089Z,45.24
2022-08-25T21:16:27.168Z,45.01
2022-08-25T21:18:56.740Z,45.30
2022-08-25T21:21:25.894Z,45.07
2022-08-25T21:23:53.641Z,45.34
2022-08-25T21:26:22.841Z,44.94
2022-08-25T21:28:51.304Z,45.35
2022-08-25T21:31:20.550Z,45.38
2022-08-25T21:33:49.891Z,45.24
2022-08-25T21:36:21.118Z,44.99
2022-08-25T21:38:50.388Z,45.25
2022-08-25T21:41:20.753Z,45.53
2022-08-25T21:43:48.547Z,45.09
2022-08-25T21:46:17.354Z,45.46
2022-08-25T21:48:46.590Z,45.11
2022-08-25T21:51:15.591Z,45.30
2022-08-25T21:53:43.345Z,45.61
2022-08-25T21:56:15.949Z,45.56
2022-08-25T21:58:45.618Z,45.62
2022-08-25T22:01:19.358Z,45.06
2022-08-25T22:03:47.427Z,45.56
2022-08-25T22:06:16.272Z,45.40
2022-08-25T22:08:44.250Z,45.38
2022-08-25T22:11:18.068Z,45.26
2022-08-25T22:13:47.395Z,45.37
2022-08-25T22:16:21.525Z,45.65
2022-08-25T22:18:49.709Z,45.41
2022-08-25T22:21:18.464Z,45.72
2022-08-25T22:23:46.309Z,45.82
2022-08-25T22:26:16.286Z,45.41
2022-08-25T22:28:49.994Z,45.69
2022-08-25T22:31:20.648Z,45.60
2022-08-25T22:33:49.256Z,45.42
2022-08-25T22:36:18.030Z,45.74
2022-08-25T22:38:46.303Z,45.60
2022-08-25T22:41:18.858Z,45.83
2022-08-25T22:43:49.118Z,45.62
2022-08-25T22:46:17.196Z,45.86
2022-08-25T22:48:46.141Z,45.96
2022-08-25T22:51:15.079Z,45.55
2022-08-25T22:53:43.428Z,45.96
2022-08-25T22:56:11.598Z,46.00
2022-08-25T22:58:41.232Z,45.82
2022-08-25T23:01:13.453Z,46.03
2022-08-25T23:03:44.656Z,46.07
2022-08-25T23:06:18.679Z,45.78
2022-08-25T23:08:48.729Z,45.90
2022-08-25T23:11:16.642Z,45.63
2022-08-25T23:13:45.827Z,45.91
2022-08-25T23:16:13.754Z,46.14
2022-08-25T23:18:43.939Z,46.15
2022-08-25T23:21:29.041Z,45.89
2022-08-25T23:24:03.019Z,46.20
2022-08-25T23:26:32.862Z,46.09
2022-08-25T23:29:02.683Z,45.94
2022-08-25T23:31:31.115Z,46.05
2022-08-25T23:33:59.128Z,46.12
2022-08-25T23:36:30.559Z,46.30
2022-08-25T23:38:58.306Z,45.95
2022-08-25T23:41:26.292Z,46.48
2022-08-25T23:43:54.147Z,46.39
2022-08-25T23:46:24.876Z,46.18
2022-08-25T23:48:54.834Z,46.28
2022-08-25T23:51:24.833Z,46.11
2022-08-25T23:53:54.294Z,46.31
2022-08-25T23:56:22.267Z,46.00
2022-08-25T23:58:50.036Z,46.43
